Worleytown, Pennsylvania
Current Conditions -  °F | °C
As of 6:53 AM on Thursday 25 Dec 2014 (Local Time) from KHGR Reporting Station
Broken Clouds Broken Clouds  
Wind Chill: 39°   Ceiling: 5500
Heat Index: 46°   Visibility: 10mi
Dew Point: 32°   Wind: 16mph
Humidity: 58%   Direction: 260°W
Pressure: 29.76"   Gusts: NA
Location:  39.7874°N, 77.754°W
Report Text: KHGR 251153Z 26014KT 10SM SCT046 BKN055 08/00 A2976 RMK AO2 PK WND 29026/1143 SLP088 60008 70027 T00780000 10111 20072 53028
Loading
Personal Weather Stations






























Interactive Weather Map New forecast layout! Learn more

10-Day Weather Forecast

Advertisements
Track Severe Weather on mobile